sensor_id;sensor_type;location;lat;lon;timestamp;pressure;altitude;pressure_sealevel;temperature;humidity
74573;BME280;63071;51.526;-0.134;2023-03-03T00:00:27;102307.16;;;23.13;26.67
74573;BME280;63071;51.526;-0.134;2023-03-03T00:02:52;102311.72;;;23.12;26.95
74573;BME280;63071;51.526;-0.134;2023-03-03T00:05:18;102315.19;;;23.13;26.83
74573;BME280;63071;51.526;-0.134;2023-03-03T00:07:44;102307.03;;;23.09;27.09
74573;BME280;63071;51.526;-0.134;2023-03-03T00:10:11;102311.72;;;23.12;26.83
74573;BME280;63071;51.526;-0.134;2023-03-03T00:12:45;102309.06;;;23.12;26.79
74573;BME280;63071;51.526;-0.134;2023-03-03T00:15:17;102309.84;;;23.13;27.13
74573;BME280;63071;51.526;-0.134;2023-03-03T00:17:43;102311.72;;;23.12;26.97
74573;BME280;63071;51.526;-0.134;2023-03-03T00:20:35;102318.59;;;23.13;26.51
74573;BME280;63071;51.526;-0.134;2023-03-03T00:23:18;102316.31;;;23.12;26.91
74573;BME280;63071;51.526;-0.134;2023-03-03T00:25:45;102318.84;;;23.08;26.88
74573;BME280;63071;51.526;-0.134;2023-03-03T00:28:19;102329.53;;;23.20;27.08
74573;BME280;63071;51.526;-0.134;2023-03-03T00:30:45;102326.97;;;23.12;26.92
74573;BME280;63071;51.526;-0.134;2023-03-03T00:33:32;102328.84;;;23.11;26.63
74573;BME280;63071;51.526;-0.134;2023-03-03T00:36:23;102325.41;;;23.11;27.12
74573;BME280;63071;51.526;-0.134;2023-03-03T00:38:54;102337.19;;;23.10;26.56
74573;BME280;63071;51.526;-0.134;2023-03-03T00:41:23;102340.50;;;23.07;26.57
74573;BME280;63071;51.526;-0.134;2023-03-03T00:43:50;102335.94;;;23.07;27.04
74573;BME280;63071;51.526;-0.134;2023-03-03T00:46:21;102334.84;;;23.08;27.00
74573;BME280;63071;51.526;-0.134;2023-03-03T00:48:49;102332.94;;;23.09;26.88
74573;BME280;63071;51.526;-0.134;2023-03-03T00:51:28;102342.84;;;23.08;26.54
74573;BME280;63071;51.526;-0.134;2023-03-03T00:53:55;102337.50;;;23.08;26.88
74573;BME280;63071;51.526;-0.134;2023-03-03T00:56:21;102333.72;;;23.09;26.81
74573;BME280;63071;51.526;-0.134;2023-03-03T00:58:47;102331.41;;;23.08;26.52
74573;BME280;63071;51.526;-0.134;2023-03-03T01:01:14;102334.06;;;23.08;26.99
74573;BME280;63071;51.526;-0.134;2023-03-03T01:03:39;102332.50;;;23.07;26.71
74573;BME280;63071;51.526;-0.134;2023-03-03T01:06:05;102338.59;;;23.07;27.06
74573;BME280;63071;51.526;-0.134;2023-03-03T01:08:31;102340.50;;;23.07;26.79
74573;BME280;63071;51.526;-0.134;2023-03-03T01:11:06;102334.72;;;23.05;26.68
74573;BME280;63071;51.526;-0.134;2023-03-03T01:13:35;102339.59;;;23.03;26.83
74573;BME280;63071;51.526;-0.134;2023-03-03T01:16:02;102338.84;;;23.02;26.73
74573;BME280;63071;51.526;-0.134;2023-03-03T01:18:28;102339.59;;;23.03;26.58
74573;BME280;63071;51.526;-0.134;2023-03-03T01:20:54;102344.63;;;23.04;26.58
74573;BME280;63071;51.526;-0.134;2023-03-03T01:23:20;102343.50;;;23.05;26.92
74573;BME280;63071;51.526;-0.134;2023-03-03T01:25:46;102344.16;;;23.02;26.53
74573;BME280;63071;51.526;-0.134;2023-03-03T01:28:12;102335.84;;;23.04;26.77
74573;BME280;63071;51.526;-0.134;2023-03-03T01:30:39;102346.50;;;23.04;26.61
74573;BME280;63071;51.526;-0.134;2023-03-03T01:33:04;102354.16;;;23.05;26.63
74573;BME280;63071;51.526;-0.134;2023-03-03T01:35:30;102352.63;;;23.04;26.60
74573;BME280;63071;51.526;-0.134;2023-03-03T01:37:57;102346.06;;;23.02;27.03
74573;BME280;63071;51.526;-0.134;2023-03-03T01:40:26;102352.94;;;23.03;26.95
74573;BME280;63071;51.526;-0.134;2023-03-03T01:42:52;102349.19;;;23.04;26.63
74573;BME280;63071;51.526;-0.134;2023-03-03T01:45:29;102355.59;;;23.03;26.64
74573;BME280;63071;51.526;-0.134;2023-03-03T01:48:17;102354.84;;;23.02;26.46
74573;BME280;63071;51.526;-0.134;2023-03-03T01:50:57;102348.72;;;23.02;26.81
74573;BME280;63071;51.526;-0.134;2023-03-03T01:53:43;102349.34;;;22.98;26.75
74573;BME280;63071;51.526;-0.134;2023-03-03T01:56:11;102351.69;;;23.00;26.68
74573;BME280;63071;51.526;-0.134;2023-03-03T01:58:42;102348.72;;;23.02;26.62
74573;BME280;63071;51.526;-0.134;2023-03-03T02:01:20;102346.22;;;22.96;26.75
74573;BME280;63071;51.526;-0.134;2023-03-03T02:03:46;102354.84;;;23.02;26.87
74573;BME280;63071;51.526;-0.134;2023-03-03T02:06:15;102348.25;;;22.99;26.54
74573;BME280;63071;51.526;-0.134;2023-03-03T02:08:58;102340.25;;;22.99;26.92
74573;BME280;63071;51.526;-0.134;2023-03-03T02:11:25;102339.78;;;22.97;26.65
74573;BME280;63071;51.526;-0.134;2023-03-03T02:13:53;102341.03;;;23.00;26.38
74573;BME280;63071;51.526;-0.134;2023-03-03T02:16:19;102331.13;;;23.00;26.53
74573;BME280;63071;51.526;-0.134;2023-03-03T02:18:45;102337.91;;;22.98;26.72
74573;BME280;63071;51.526;-0.134;2023-03-03T02:21:16;102334.00;;;22.95;26.74
74573;BME280;63071;51.526;-0.134;2023-03-03T02:23:52;102340.25;;;22.99;26.63
74573;BME280;63071;51.526;-0.134;2023-03-03T02:26:23;102339.13;;;23.00;26.49
74573;BME280;63071;51.526;-0.134;2023-03-03T02:28:49;102351.03;;;23.03;26.55
74573;BME280;63071;51.526;-0.134;2023-03-03T02:31:19;102341.94;;;23.04;26.59
74573;BME280;63071;51.526;-0.134;2023-03-03T02:33:48;102344.16;;;23.02;26.64
74573;BME280;63071;51.526;-0.134;2023-03-03T02:36:28;102342.56;;;23.01;26.81
74573;BME280;63071;51.526;-0.134;2023-03-03T02:39:25;102335.69;;;23.00;26.57
74573;BME280;63071;51.526;-0.134;2023-03-03T02:42:11;102344.44;;;23.00;26.21
74573;BME280;63071;51.526;-0.134;2023-03-03T02:44:38;102346.34;;;23.00;26.63
74573;BME280;63071;51.526;-0.134;2023-03-03T02:47:04;102340.25;;;22.99;26.65
74573;BME280;63071;51.526;-0.134;2023-03-03T02:49:33;102345.13;;;22.97;26.59
74573;BME280;63071;51.526;-0.134;2023-03-03T02:52:00;102338.66;;;22.98;26.46
74573;BME280;63071;51.526;-0.134;2023-03-03T02:54:27;102337.13;;;22.97;26.31
74573;BME280;63071;51.526;-0.134;2023-03-03T02:56:55;102337.44;;;22.96;26.79
74573;BME280;63071;51.526;-0.134;2023-03-03T02:59:20;102340.13;;;22.96;26.99
74573;BME280;63071;51.526;-0.134;2023-03-03T03:01:46;102353.13;;;22.97;26.38
74573;BME280;63071;51.526;-0.134;2023-03-03T03:04:15;102346.34;;;23.00;26.49
74573;BME280;63071;51.526;-0.134;2023-03-03T03:06:40;102330.00;;;22.89;26.54
74573;BME280;63071;51.526;-0.134;2023-03-03T03:09:08;102351.22;;;22.98;26.25
74573;BME280;63071;51.526;-0.134;2023-03-03T03:11:34;102352.78;;;22.99;26.64
74573;BME280;63071;51.526;-0.134;2023-03-03T03:14:01;102354.22;;;22.96;26.58
74573;BME280;63071;51.526;-0.134;2023-03-03T03:16:27;102353.13;;;22.97;26.58
74573;BME280;63071;51.526;-0.134;2023-03-03T03:18:53;102353.91;;;22.98;26.82
74573;BME280;63071;51.526;-0.134;2023-03-03T03:21:19;102356.88;;;22.96;26.48
74573;BME280;63071;51.526;-0.134;2023-03-03T03:23:45;102353.13;;;22.97;26.49
74573;BME280;63071;51.526;-0.134;2023-03-03T03:26:10;102353.91;;;22.98;26.72
74573;BME280;63071;51.526;-0.134;2023-03-03T03:28:37;102342.13;;;22.99;26.47
74573;BME280;63071;51.526;-0.134;2023-03-03T03:31:03;102347.00;;;22.97;26.43
74573;BME280;63071;51.526;-0.134;2023-03-03T03:33:29;102344.31;;;22.97;26.45
74573;BME280;63071;51.526;-0.134;2023-03-03T03:35:55;102351.56;;;22.96;26.48
74573;BME280;63071;51.526;-0.134;2023-03-03T03:38:22;102355.00;;;22.97;26.55
74573;BME280;63071;51.526;-0.134;2023-03-03T03:40:48;102354.22;;;22.96;26.49
74573;BME280;63071;51.526;-0.134;2023-03-03T03:43:14;102352.69;;;22.95;26.48
74573;BME280;63071;51.526;-0.134;2023-03-03T03:45:41;102356.44;;;22.94;26.18
74573;BME280;63071;51.526;-0.134;2023-03-03T03:48:07;102359.88;;;22.95;26.00
74573;BME280;63071;51.526;-0.134;2023-03-03T03:50:32;102365.22;;;22.95;26.71
74573;BME280;63071;51.526;-0.134;2023-03-03T03:52:58;102367.88;;;22.95;26.15
74573;BME280;63071;51.526;-0.134;2023-03-03T03:55:23;102362.09;;;22.93;26.42
74573;BME280;63071;51.526;-0.134;2023-03-03T03:57:49;102359.09;;;22.94;26.34
74573;BME280;63071;51.526;-0.134;2023-03-03T04:00:15;102360.22;;;22.93;26.38
74573;BME280;63071;51.526;-0.134;2023-03-03T04:02:40;102369.78;;;22.94;26.57
74573;BME280;63071;51.526;-0.134;2023-03-03T04:05:06;102359.44;;;22.93;26.52
74573;BME280;63071;51.526;-0.134;2023-03-03T04:07:32;102359.44;;;22.93;26.51
74573;BME280;63071;51.526;-0.134;2023-03-03T04:09:57;102362.91;;;22.93;26.67
74573;BME280;63071;51.526;-0.134;2023-03-03T04:12:23;102369.78;;;22.94;26.13
74573;BME280;63071;51.526;-0.134;2023-03-03T04:14:48;102368.22;;;22.93;26.14
74573;BME280;63071;51.526;-0.134;2023-03-03T04:17:21;102366.66;;;22.92;26.33
74573;BME280;63071;51.526;-0.134;2023-03-03T04:19:48;102369.31;;;22.92;26.46
74573;BME280;63071;51.526;-0.134;2023-03-03T04:22:14;102371.66;;;22.94;26.26
74573;BME280;63071;51.526;-0.134;2023-03-03T04:24:40;102365.13;;;22.91;26.21
74573;BME280;63071;51.526;-0.134;2023-03-03T04:27:06;102377.31;;;22.92;26.29
74573;BME280;63071;51.526;-0.134;2023-03-03T04:29:34;102372.00;;;22.92;26.15
74573;BME280;63071;51.526;-0.134;2023-03-03T04:31:59;102364.13;;;22.96;26.00
74573;BME280;63071;51.526;-0.134;2023-03-03T04:34:25;102370.91;;;22.93;26.49
74573;BME280;63071;51.526;-0.134;2023-03-03T04:36:50;102365.13;;;22.91;26.12
74573;BME280;63071;51.526;-0.134;2023-03-03T04:39:15;102365.13;;;22.91;26.08
74573;BME280;63071;51.526;-0.134;2023-03-03T04:41:41;102368.41;;;22.88;26.71
74573;BME280;63071;51.526;-0.134;2023-03-03T04:44:06;102368.09;;;22.90;26.34
74573;BME280;63071;51.526;-0.134;2023-03-03T04:46:32;102361.66;;;22.91;26.08
74573;BME280;63071;51.526;-0.134;2023-03-03T04:48:57;102367.31;;;22.89;26.44
74573;BME280;63071;51.526;-0.134;2023-03-03T04:51:23;102365.44;;;22.90;26.18
74573;BME280;63071;51.526;-0.134;2023-03-03T04:53:48;102368.41;;;22.88;26.27
74573;BME280;63071;51.526;-0.134;2023-03-03T04:56:14;102366.88;;;22.87;25.98
74573;BME280;63071;51.526;-0.134;2023-03-03T04:58:40;102368.75;;;22.87;25.96
74573;BME280;63071;51.526;-0.134;2023-03-03T05:01:05;102373.75;;;22.88;25.92
74573;BME280;63071;51.526;-0.134;2023-03-03T05:03:31;102369.53;;;22.87;26.10
74573;BME280;63071;51.526;-0.134;2023-03-03T05:05:59;102375.31;;;22.89;25.93
74573;BME280;63071;51.526;-0.134;2023-03-03T05:08:24;102365.53;;;22.81;26.32
74573;BME280;63071;51.526;-0.134;2023-03-03T05:10:51;102367.06;;;22.82;26.35
74573;BME280;63071;51.526;-0.134;2023-03-03T05:13:17;102379.53;;;22.90;26.41
74573;BME280;63071;51.526;-0.134;2023-03-03T05:15:43;102376.41;;;22.88;26.06
74573;BME280;63071;51.526;-0.134;2023-03-03T05:18:13;102380.97;;;22.88;26.21
74573;BME280;63071;51.526;-0.134;2023-03-03T05:20:39;102376.41;;;22.88;26.29
74573;BME280;63071;51.526;-0.134;2023-03-03T05:23:05;102383.66;;;22.88;25.86
74573;BME280;63071;51.526;-0.134;2023-03-03T05:25:31;102369.09;;;22.85;26.51
74573;BME280;63071;51.526;-0.134;2023-03-03T05:27:56;102381.75;;;22.88;26.35
74573;BME280;63071;51.526;-0.134;2023-03-03T05:30:22;102385.53;;;22.87;26.20
74573;BME280;63071;51.526;-0.134;2023-03-03T05:32:47;102379.41;;;22.87;26.29
74573;BME280;63071;51.526;-0.134;2023-03-03T05:35:13;102378.94;;;22.85;26.53
74573;BME280;63071;51.526;-0.134;2023-03-03T05:37:39;102384.28;;;22.85;26.48
74573;BME280;63071;51.526;-0.134;2023-03-03T05:40:07;102382.88;;;22.87;26.02
74573;BME280;63071;51.526;-0.134;2023-03-03T05:42:33;102376.41;;;22.88;26.32
74573;BME280;63071;51.526;-0.134;2023-03-03T05:44:58;102378.94;;;22.85;26.44
74573;BME280;63071;51.526;-0.134;2023-03-03T05:47:24;102380.53;;;22.86;26.35
74573;BME280;63071;51.526;-0.134;2023-03-03T05:49:49;102378.63;;;22.86;26.02
74573;BME280;63071;51.526;-0.134;2023-03-03T05:52:15;102381.28;;;22.86;26.19
74573;BME280;63071;51.526;-0.134;2023-03-03T05:54:40;102377.84;;;22.86;26.02
74573;BME280;63071;51.526;-0.134;2023-03-03T05:57:06;102375.50;;;22.84;26.12
74573;BME280;63071;51.526;-0.134;2023-03-03T05:59:31;102379.41;;;22.87;25.97
74573;BME280;63071;51.526;-0.134;2023-03-03T06:01:57;102375.19;;;22.86;26.26
74573;BME280;63071;51.526;-0.134;2023-03-03T06:04:22;102377.09;;;22.85;26.25
74573;BME280;63071;51.526;-0.134;2023-03-03T06:06:48;102374.41;;;22.85;26.20
74573;BME280;63071;51.526;-0.134;2023-03-03T06:09:13;102377.84;;;22.86;26.21
74573;BME280;63071;51.526;-0.134;2023-03-03T06:11:39;102373.75;;;22.88;26.04
74573;BME280;63071;51.526;-0.134;2023-03-03T06:14:05;102370.63;;;22.86;25.88
74573;BME280;63071;51.526;-0.134;2023-03-03T06:16:30;102376.41;;;22.88;26.11
74573;BME280;63071;51.526;-0.134;2023-03-03T06:18:56;102378.31;;;22.88;26.06
74573;BME280;63071;51.526;-0.134;2023-03-03T06:21:21;102373.63;;;22.85;26.04
74573;BME280;63071;51.526;-0.134;2023-03-03T06:23:47;102369.53;;;22.87;25.71
74573;BME280;63071;51.526;-0.134;2023-03-03T06:26:12;102364.06;;;22.84;26.37
74573;BME280;63071;51.526;-0.134;2023-03-03T06:28:38;102371.75;;;22.85;25.96
74573;BME280;63071;51.526;-0.134;2023-03-03T06:31:03;102370.44;;;22.91;25.72
74573;BME280;63071;51.526;-0.134;2023-03-03T06:33:29;102369.53;;;22.87;26.20
74573;BME280;63071;51.526;-0.134;2023-03-03T06:35:54;102370.94;;;22.85;26.17
74573;BME280;63071;51.526;-0.134;2023-03-03T06:38:20;102376.75;;;22.87;25.97
74573;BME280;63071;51.526;-0.134;2023-03-03T06:40:46;102377.53;;;22.87;25.67
74573;BME280;63071;51.526;-0.134;2023-03-03T06:43:12;102378.63;;;22.86;25.95
74573;BME280;63071;51.526;-0.134;2023-03-03T06:45:38;102375.97;;;22.86;25.54
74573;BME280;63071;51.526;-0.134;2023-03-03T06:48:04;102383.66;;;22.88;25.88
74573;BME280;63071;51.526;-0.134;2023-03-03T06:50:29;102384.41;;;22.88;26.16
74573;BME280;63071;51.526;-0.134;2023-03-03T06:53:11;102382.53;;;22.89;26.17
74573;BME280;63071;51.526;-0.134;2023-03-03T06:55:37;102386.31;;;22.88;26.08
74573;BME280;63071;51.526;-0.134;2023-03-03T06:58:15;102390.97;;;22.91;26.29
74573;BME280;63071;51.526;-0.134;2023-03-03T07:00:44;102389.88;;;22.92;26.27
74573;BME280;63071;51.526;-0.134;2023-03-03T07:03:18;102390.66;;;22.92;26.06
74573;BME280;63071;51.526;-0.134;2023-03-03T07:05:45;102391.09;;;22.94;26.05
74573;BME280;63071;51.526;-0.134;2023-03-03T07:08:14;102394.53;;;22.95;26.07
74573;BME280;63071;51.526;-0.134;2023-03-03T07:10:41;102388.88;;;22.96;25.91
74573;BME280;63071;51.526;-0.134;2023-03-03T07:13:22;102395.00;;;22.97;25.89
74573;BME280;63071;51.526;-0.134;2023-03-03T07:15:51;102390.78;;;22.96;26.40
74573;BME280;63071;51.526;-0.134;2023-03-03T07:18:34;102405.78;;;23.00;26.11
74573;BME280;63071;51.526;-0.134;2023-03-03T07:21:30;102407.41;;;23.02;26.08
74573;BME280;63071;51.526;-0.134;2023-03-03T07:23:57;102404.72;;;23.02;25.92
74573;BME280;63071;51.526;-0.134;2023-03-03T07:26:30;102407.41;;;23.02;25.98
74573;BME280;63071;51.526;-0.134;2023-03-03T07:29:03;102405.78;;;23.00;25.73
74573;BME280;63071;51.526;-0.134;2023-03-03T07:31:40;102406.28;;;23.03;26.06
74573;BME280;63071;51.526;-0.134;2023-03-03T07:34:20;102409.38;;;23.05;26.15
74573;BME280;63071;51.526;-0.134;2023-03-03T07:36:48;102412.06;;;23.05;25.77
74573;BME280;63071;51.526;-0.134;2023-03-03T07:39:33;102409.84;;;23.07;25.88
74573;BME280;63071;51.526;-0.134;2023-03-03T07:42:23;102412.81;;;23.05;26.10
74573;BME280;63071;51.526;-0.134;2023-03-03T07:44:54;102426.97;;;23.06;26.02
74573;BME280;63071;51.526;-0.134;2023-03-03T07:50:00;102431.50;;;23.05;25.63
74573;BME280;63071;51.526;-0.134;2023-03-03T07:52:40;102430.72;;;23.05;25.82
74573;BME280;63071;51.526;-0.134;2023-03-03T07:55:33;102434.06;;;23.02;26.12
74573;BME280;63071;51.526;-0.134;2023-03-03T08:03:42;102432.94;;;23.03;25.82
74573;BME280;63071;51.526;-0.134;2023-03-03T08:08:59;102454.28;;;23.03;26.07
74573;BME280;63071;51.526;-0.134;2023-03-03T08:11:27;102451.59;;;23.03;25.74
74573;BME280;63071;51.526;-0.134;2023-03-03T08:13:52;102447.69;;;23.00;25.75
74573;BME280;63071;51.526;-0.134;2023-03-03T08:16:29;102452.72;;;23.02;25.80
74573;BME280;63071;51.526;-0.134;2023-03-03T08:19:01;102461.50;;;23.02;25.35
74573;BME280;63071;51.526;-0.134;2023-03-03T08:21:27;102462.28;;;23.03;25.73
74573;BME280;63071;51.526;-0.134;2023-03-03T08:23:53;102458.66;;;22.98;25.89
74573;BME280;63071;51.526;-0.134;2023-03-03T08:26:20;102461.78;;;23.00;26.06
74573;BME280;63071;51.526;-0.134;2023-03-03T08:28:46;102454.91;;;22.99;25.85
74573;BME280;63071;51.526;-0.134;2023-03-03T08:31:13;102464.28;;;23.06;25.70
74573;BME280;63071;51.526;-0.134;2023-03-03T08:33:38;102456.63;;;23.04;25.64
74573;BME280;63071;51.526;-0.134;2023-03-03T08:36:06;102464.94;;;23.03;25.86
74573;BME280;63071;51.526;-0.134;2023-03-03T08:38:32;102459.13;;;23.00;25.87
74573;BME280;63071;51.526;-0.134;2023-03-03T08:40:58;102461.78;;;23.00;26.05
74573;BME280;63071;51.526;-0.134;2023-03-03T08:43:23;102453.03;;;23.00;26.14
74573;BME280;63071;51.526;-0.134;2023-03-03T08:45:52;102459.91;;;23.01;25.71
74573;BME280;63071;51.526;-0.134;2023-03-03T08:48:19;102462.09;;;22.99;26.04
74573;BME280;63071;51.526;-0.134;2023-03-03T08:50:46;102452.88;;;22.96;25.99
74573;BME280;63071;51.526;-0.134;2023-03-03T08:53:12;102451.44;;;22.99;25.71
74573;BME280;63071;51.526;-0.134;2023-03-03T08:55:39;102451.00;;;22.97;25.66
74573;BME280;63071;51.526;-0.134;2023-03-03T08:58:04;102448.78;;;22.99;25.89
74573;BME280;63071;51.526;-0.134;2023-03-03T09:00:30;102454.09;;;22.99;25.74
74573;BME280;63071;51.526;-0.134;2023-03-03T09:02:55;102448.78;;;22.99;25.49
74573;BME280;63071;51.526;-0.134;2023-03-03T09:05:22;102452.25;;;22.99;26.15
74573;BME280;63071;51.526;-0.134;2023-03-03T09:07:48;102454.47;;;22.97;25.63
74573;BME280;63071;51.526;-0.134;2023-03-03T09:10:19;102453.66;;;22.97;25.46
74573;BME280;63071;51.526;-0.134;2023-03-03T09:12:47;102453.66;;;22.97;25.94
74573;BME280;63071;51.526;-0.134;2023-03-03T09:15:29;102465.91;;;22.98;25.78
74573;BME280;63071;51.526;-0.134;2023-03-03T09:18:09;102467.44;;;22.99;25.79
74573;BME280;63071;51.526;-0.134;2023-03-03T09:20:42;102464.78;;;22.99;25.79
74573;BME280;63071;51.526;-0.134;2023-03-03T09:25:45;102469.78;;;23.00;25.83
74573;BME280;63071;51.526;-0.134;2023-03-03T09:30:48;102465.13;;;22.97;26.07
74573;BME280;63071;51.526;-0.134;2023-03-03T09:33:26;102470.09;;;22.99;25.85
74573;BME280;63071;51.526;-0.134;2023-03-03T09:38:50;102469.34;;;22.98;25.44
74573;BME280;63071;51.526;-0.134;2023-03-03T09:50:11;102473.13;;;22.97;25.85
74573;BME280;63071;51.526;-0.134;2023-03-03T09:53:00;102473.13;;;22.97;25.75
74573;BME280;63071;51.526;-0.134;2023-03-03T09:56:04;102477.66;;;22.97;25.99
74573;BME280;63071;51.526;-0.134;2023-03-03T10:09:57;102481.13;;;22.97;25.67
74573;BME280;63071;51.526;-0.134;2023-03-03T10:17:56;102495.22;;;22.98;25.73
74573;BME280;63071;51.526;-0.134;2023-03-03T10:20:37;102499.78;;;22.97;25.32
74573;BME280;63071;51.526;-0.134;2023-03-03T10:26:03;102499.00;;;22.97;25.58
74573;BME280;63071;51.526;-0.134;2023-03-03T10:37:41;102507.91;;;23.01;25.58
74573;BME280;63071;51.526;-0.134;2023-03-03T10:40:33;102511.69;;;23.00;25.98
74573;BME280;63071;51.526;-0.134;2023-03-03T10:43:15;102510.09;;;22.99;25.51
74573;BME280;63071;51.526;-0.134;2023-03-03T10:57:03;102510.56;;;23.01;25.63
74573;BME280;63071;51.526;-0.134;2023-03-03T10:59:40;102509.50;;;23.02;25.90
74573;BME280;63071;51.526;-0.134;2023-03-03T11:02:21;102508.25;;;22.99;25.99
74573;BME280;63071;51.526;-0.134;2023-03-03T11:07:54;102511.69;;;23.00;25.92
74573;BME280;63071;51.526;-0.134;2023-03-03T11:13:23;102517.19;;;23.04;26.05
74573;BME280;63071;51.526;-0.134;2023-03-03T11:16:14;102524.06;;;23.05;26.30
74573;BME280;63071;51.526;-0.134;2023-03-03T11:19:03;102522.50;;;23.04;25.99
74573;BME280;63071;51.526;-0.134;2023-03-03T11:21:37;102523.75;;;23.06;26.33
74573;BME280;63071;51.526;-0.134;2023-03-03T11:24:18;102522.75;;;23.11;26.47
74573;BME280;63071;51.526;-0.134;2023-03-03T11:27:03;102517.88;;;23.13;26.19
74573;BME280;63071;51.526;-0.134;2023-03-03T11:29:46;102515.22;;;23.13;26.48
74573;BME280;63071;51.526;-0.134;2023-03-03T11:40:54;102517.09;;;23.12;26.40
74573;BME280;63071;51.526;-0.134;2023-03-03T11:43:49;102512.38;;;23.18;26.78
74573;BME280;63071;51.526;-0.134;2023-03-03T11:46:21;102526.16;;;23.20;26.92
74573;BME280;63071;51.526;-0.134;2023-03-03T11:49:04;102516.56;;;23.19;26.70
74573;BME280;63071;51.526;-0.134;2023-03-03T11:52:12;102521.59;;;23.20;26.07
74573;BME280;63071;51.526;-0.134;2023-03-03T11:57:22;102514.81;;;23.23;26.83
74573;BME280;63071;51.526;-0.134;2023-03-03T12:00:26;102514.16;;;23.26;26.41
74573;BME280;63071;51.526;-0.134;2023-03-03T12:05:56;102519.19;;;23.28;26.43
74573;BME280;63071;51.526;-0.134;2023-03-03T12:11:27;102510.66;;;23.34;26.01
74573;BME280;63071;51.526;-0.134;2023-03-03T12:30:28;102502.84;;;23.29;26.21
74573;BME280;63071;51.526;-0.134;2023-03-03T12:33:21;102496.19;;;23.35;26.01
74573;BME280;63071;51.526;-0.134;2023-03-03T12:36:01;102493.72;;;23.30;25.93
74573;BME280;63071;51.526;-0.134;2023-03-03T12:47:00;102495.09;;;23.36;26.15
74573;BME280;63071;51.526;-0.134;2023-03-03T12:49:48;102489.31;;;23.34;26.30
74573;BME280;63071;51.526;-0.134;2023-03-03T12:57:50;102490.19;;;23.38;26.39
74573;BME280;63071;51.526;-0.134;2023-03-03T13:00:23;102496.44;;;23.43;26.37
74573;BME280;63071;51.526;-0.134;2023-03-03T13:06:10;102493.78;;;23.43;26.43
74573;BME280;63071;51.526;-0.134;2023-03-03T13:09:18;102497.97;;;23.44;26.63
74573;BME280;63071;51.526;-0.134;2023-03-03T13:14:47;102483.53;;;23.45;26.87
74573;BME280;63071;51.526;-0.134;2023-03-03T13:17:34;102484.78;;;23.47;26.50
74573;BME280;63071;51.526;-0.134;2023-03-03T13:20:20;102492.00;;;23.47;26.75
74573;BME280;63071;51.526;-0.134;2023-03-03T13:23:11;102488.13;;;23.44;26.84
74573;BME280;63071;51.526;-0.134;2023-03-03T13:25:49;102481.66;;;23.45;26.70
74573;BME280;63071;51.526;-0.134;2023-03-03T13:28:30;102487.00;;;23.45;27.09
74573;BME280;63071;51.526;-0.134;2023-03-03T13:31:14;102486.22;;;23.45;26.84
74573;BME280;63071;51.526;-0.134;2023-03-03T13:36:17;102481.66;;;23.45;26.46
74573;BME280;63071;51.526;-0.134;2023-03-03T13:38:50;102479.31;;;23.44;26.98
74573;BME280;63071;51.526;-0.134;2023-03-03T13:41:24;102476.63;;;23.44;26.98
74573;BME280;63071;51.526;-0.134;2023-03-03T13:46:52;102482.09;;;23.47;27.09
74573;BME280;63071;51.526;-0.134;2023-03-03T13:49:53;102480.22;;;23.48;27.01
74573;BME280;63071;51.526;-0.134;2023-03-03T13:52:37;102481.78;;;23.49;26.96
74573;BME280;63071;51.526;-0.134;2023-03-03T13:58:02;102477.22;;;23.49;26.68
74573;BME280;63071;51.526;-0.134;2023-03-03T14:03:25;102477.66;;;23.51;27.09
74573;BME280;63071;51.526;-0.134;2023-03-03T14:11:43;102476.13;;;23.50;27.36
74573;BME280;63071;51.526;-0.134;2023-03-03T14:20:50;102471.13;;;23.61;27.14
74573;BME280;63071;51.526;-0.134;2023-03-03T14:28:40;102472.66;;;23.62;26.90
74573;BME280;63071;51.526;-0.134;2023-03-03T14:31:30;102475.69;;;23.60;27.03
74573;BME280;63071;51.526;-0.134;2023-03-03T14:36:47;102467.72;;;23.73;26.96
74573;BME280;63071;51.526;-0.134;2023-03-03T14:39:34;102469.69;;;23.76;26.86
74573;BME280;63071;51.526;-0.134;2023-03-03T14:42:30;102457.03;;;23.73;26.88
74573;BME280;63071;51.526;-0.134;2023-03-03T14:45:01;102466.59;;;23.74;26.70
74573;BME280;63071;51.526;-0.134;2023-03-03T14:47:29;102465.81;;;23.73;26.75
74573;BME280;63071;51.526;-0.134;2023-03-03T14:49:57;102457.81;;;23.73;26.70
74573;BME280;63071;51.526;-0.134;2023-03-03T14:52:27;102460.13;;;23.75;26.61
74573;BME280;63071;51.526;-0.134;2023-03-03T14:54:56;102449.47;;;23.75;26.65
74573;BME280;63071;51.526;-0.134;2023-03-03T15:00:28;102451.00;;;23.76;26.61
74573;BME280;63071;51.526;-0.134;2023-03-03T15:05:31;102438.25;;;23.82;26.61
74573;BME280;63071;51.526;-0.134;2023-03-03T15:10:33;102434.69;;;23.90;26.31
74573;BME280;63071;51.526;-0.134;2023-03-03T15:18:29;102417.13;;;23.89;26.33
74573;BME280;63071;51.526;-0.134;2023-03-03T15:21:08;102422.13;;;23.90;26.44
74573;BME280;63071;51.526;-0.134;2023-03-03T15:29:16;102420.78;;;23.96;26.34
74573;BME280;63071;51.526;-0.134;2023-03-03T15:32:12;102410.44;;;23.95;26.15
74573;BME280;63071;51.526;-0.134;2023-03-03T15:37:48;102409.13;;;23.89;25.88
74573;BME280;63071;51.526;-0.134;2023-03-03T15:43:04;102417.34;;;23.84;26.00
74573;BME280;63071;51.526;-0.134;2023-03-03T15:45:44;102417.56;;;23.78;25.91
74573;BME280;63071;51.526;-0.134;2023-03-03T15:59:12;102416.22;;;23.72;25.70
74573;BME280;63071;51.526;-0.134;2023-03-03T16:04:28;102414.19;;;23.69;25.60
74573;BME280;63071;51.526;-0.134;2023-03-03T16:07:12;102408.06;;;23.69;25.60
74573;BME280;63071;51.526;-0.134;2023-03-03T16:21:13;102414.44;;;23.64;25.40
74573;BME280;63071;51.526;-0.134;2023-03-03T16:23:54;102413.94;;;23.62;25.39
74573;BME280;63071;51.526;-0.134;2023-03-03T16:26:42;102418.19;;;23.63;25.47
74573;BME280;63071;51.526;-0.134;2023-03-03T16:32:03;102423.09;;;23.61;25.49
74573;BME280;63071;51.526;-0.134;2023-03-03T16:34:59;102415.31;;;23.68;25.55